Time;durP1;ratioP1;P1;durP2;ratioP2;P2;SDS_P1;SDS_P2;PMS_P1;PMS_P2;Temp;Humidity;BMP_temperature;BMP_pressure;BME280_temperature;BME280_humidity;BME280_pressure;Samples;Min_cycle;Max_cycle;Signal;HPM_P1;HPM_P2
2022/01/10 00:00:48;;;;;;;5.70;2.90;;;;;;;;;;4982886;28;92595;-77
2022/01/10 00:03:15;;;;;;;9.93;3.47;;;;;;;;;;4988993;28;92863;-77
2022/01/10 00:05:41;;;;;;;4.25;2.63;;;;;;;;;;4983114;28;92892;-77
2022/01/10 00:08:08;;;;;;;7.35;3.25;;;;;;;;;;4983239;28;92174;-78
2022/01/10 00:10:35;;;;;;;5.38;3.03;;;;;;;;;;4991285;28;92439;-77
2022/01/10 00:13:05;;;;;;;7.53;3.08;;;;;;;;;;4990156;28;93923;-80
2022/01/10 00:15:31;;;;;;;7.05;3.25;;;;;;;;;;4981048;28;94843;-77
2022/01/10 00:17:57;;;;;;;6.95;3.30;;;;;;;;;;4982327;28;92474;-78
2022/01/10 00:20:24;;;;;;;5.28;3.03;;;;;;;;;;4977929;28;93057;-77
2022/01/10 00:22:51;;;;;;;5.18;2.80;;;;;;;;;;4975687;28;93028;-78
2022/01/10 00:25:19;;;;;;;12.20;3.38;;;;;;;;;;4992927;28;92400;-78
2022/01/10 00:27:46;;;;;;;4.60;3.03;;;;;;;;;;4988691;28;92330;-80
2022/01/10 00:30:13;;;;;;;6.57;2.97;;;;;;;;;;4978662;28;92432;-78
2022/01/10 00:32:41;;;;;;;4.97;2.92;;;;;;;;;;4987076;28;92369;-78
2022/01/10 00:35:08;;;;;;;4.90;2.80;;;;;;;;;;4987812;28;95081;-78
2022/01/10 00:37:35;;;;;;;9.43;2.92;;;;;;;;;;4976144;28;92409;-78
2022/01/10 00:40:03;;;;;;;6.63;2.95;;;;;;;;;;4959909;28;95764;-78
2022/01/10 00:42:31;;;;;;;5.70;2.70;;;;;;;;;;4982016;28;92408;-78
2022/01/10 00:45:01;;;;;;;5.40;2.33;;;;;;;;;;4983495;28;93182;-78
2022/01/10 00:47:27;;;;;;;6.35;2.80;;;;;;;;;;4989579;28;93062;-78
2022/01/10 00:49:54;;;;;;;5.50;2.72;;;;;;;;;;4975968;28;93149;-78
2022/01/10 00:52:21;;;;;;;6.45;2.85;;;;;;;;;;4989492;28;93521;-78
2022/01/10 00:54:48;;;;;;;4.18;2.55;;;;;;;;;;5004357;28;92281;-79
2022/01/10 00:57:14;;;;;;;4.50;2.75;;;;;;;;;;5000831;28;93392;-79
2022/01/10 00:59:41;;;;;;;3.90;2.30;;;;;;;;;;4994291;28;93418;-78
2022/01/10 01:02:07;;;;;;;11.40;2.90;;;;;;;;;;4980452;28;94604;-78
2022/01/10 01:04:34;;;;;;;6.63;2.78;;;;;;;;;;4984248;28;94596;-78
2022/01/10 01:07:00;;;;;;;4.35;2.72;;;;;;;;;;4996484;28;92460;-78
2022/01/10 01:09:29;;;;;;;5.75;2.67;;;;;;;;;;4977630;28;92890;-78
2022/01/10 01:12:21;;;;;;;4.05;2.47;;;;;;;;;;4978808;28;92772;-79
2022/01/10 01:17:32;;;;;;;4.88;2.78;;;;;;;;;;5003699;28;94600;-79
2022/01/10 01:25:12;;;;;;;5.00;2.60;;;;;;;;;;4996074;28;92883;-79
2022/01/10 01:27:39;;;;;;;4.65;2.65;;;;;;;;;;4997181;28;94062;-78
2022/01/10 01:30:07;;;;;;;3.72;2.35;;;;;;;;;;4996172;28;94501;-78
2022/01/10 01:32:33;;;;;;;5.28;2.58;;;;;;;;;;4982389;28;96509;-78
2022/01/10 01:35:06;;;;;;;3.40;2.75;;;;;;;;;;4980496;28;94193;-78
2022/01/10 01:37:35;;;;;;;6.38;2.60;;;;;;;;;;4967293;28;93839;-79
2022/01/10 01:40:03;;;;;;;6.10;3.05;;;;;;;;;;4980902;28;92288;-79
2022/01/10 01:42:36;;;;;;;6.13;2.60;;;;;;;;;;4997607;28;92954;-79
2022/01/10 01:45:05;;;;;;;5.32;2.55;;;;;;;;;;4979191;28;95241;-78
2022/01/10 01:47:31;;;;;;;3.97;2.22;;;;;;;;;;4996409;28;91989;-78
2022/01/10 01:50:00;;;;;;;3.92;2.60;;;;;;;;;;4981385;28;95493;-78
2022/01/10 01:52:27;;;;;;;5.00;2.70;;;;;;;;;;4984867;28;95090;-78
2022/01/10 01:54:56;;;;;;;4.38;2.50;;;;;;;;;;4992877;28;95463;-78
2022/01/10 01:57:22;;;;;;;3.38;2.20;;;;;;;;;;4976648;28;95938;-78
2022/01/10 01:59:49;;;;;;;7.10;2.75;;;;;;;;;;4992251;28;92381;-78
2022/01/10 02:02:16;;;;;;;4.78;2.53;;;;;;;;;;4966697;28;94239;-79
2022/01/10 02:04:43;;;;;;;6.30;2.30;;;;;;;;;;5006931;28;91928;-80
2022/01/10 02:07:11;;;;;;;5.30;2.58;;;;;;;;;;4987232;28;91858;-80
2022/01/10 02:09:41;;;;;;;3.97;2.22;;;;;;;;;;4988145;28;95647;-79
2022/01/10 02:12:07;;;;;;;3.42;2.28;;;;;;;;;;4973900;28;94211;-79
2022/01/10 02:14:34;;;;;;;5.78;2.63;;;;;;;;;;4973153;28;92294;-79
2022/01/10 02:17:03;;;;;;;5.35;2.80;;;;;;;;;;4971845;28;94199;-79
2022/01/10 02:19:41;;;;;;;4.78;2.83;;;;;;;;;;4983679;28;94950;-79
2022/01/10 02:22:07;;;;;;;3.75;2.50;;;;;;;;;;4965071;28;92272;-79
2022/01/10 02:25:00;;;;;;;4.97;2.53;;;;;;;;;;4966485;28;94064;-79
2022/01/10 02:27:28;;;;;;;4.68;2.63;;;;;;;;;;4966312;28;92081;-79
2022/01/10 02:29:54;;;;;;;4.95;2.78;;;;;;;;;;4967584;28;94040;-79
2022/01/10 02:32:21;;;;;;;3.25;2.35;;;;;;;;;;4977445;28;92411;-79
2022/01/10 02:34:47;;;;;;;5.82;2.88;;;;;;;;;;4988209;28;94617;-79
2022/01/10 02:37:33;;;;;;;6.05;2.83;;;;;;;;;;4987581;28;93968;-79
2022/01/10 02:40:06;;;;;;;4.45;2.42;;;;;;;;;;4974986;28;93699;-79
2022/01/10 02:42:32;;;;;;;6.65;2.65;;;;;;;;;;4969665;28;91932;-79
2022/01/10 02:45:00;;;;;;;6.38;3.35;;;;;;;;;;4976233;28;94882;-79
2022/01/10 02:47:28;;;;;;;4.80;2.40;;;;;;;;;;4981977;28;97339;-79
2022/01/10 02:49:54;;;;;;;6.40;2.50;;;;;;;;;;4982150;28;92928;-78
2022/01/10 02:52:21;;;;;;;6.45;2.33;;;;;;;;;;4969334;28;94750;-78
2022/01/10 02:54:50;;;;;;;5.50;2.75;;;;;;;;;;4971713;28;94000;-78
2022/01/10 02:57:17;;;;;;;8.50;3.17;;;;;;;;;;4972983;28;95169;-78
2022/01/10 02:59:44;;;;;;;4.72;2.33;;;;;;;;;;4963322;28;93630;-78
2022/01/10 03:02:11;;;;;;;5.10;2.47;;;;;;;;;;4950901;28;94167;-78
2022/01/10 03:04:39;;;;;;;8.13;3.60;;;;;;;;;;4960790;28;95389;-78
2022/01/10 03:07:06;;;;;;;3.90;2.70;;;;;;;;;;4975654;28;93818;-79
2022/01/10 03:09:34;;;;;;;6.57;3.00;;;;;;;;;;4987833;28;96552;-78
2022/01/10 03:12:01;;;;;;;2.95;2.17;;;;;;;;;;4989648;28;94076;-78
2022/01/10 03:14:27;;;;;;;6.15;2.70;;;;;;;;;;4989305;28;92362;-78
2022/01/10 03:16:54;;;;;;;3.88;2.30;;;;;;;;;;4983611;28;92982;-78
2022/01/10 03:19:20;;;;;;;5.80;3.08;;;;;;;;;;4979989;28;92903;-78
2022/01/10 03:21:47;;;;;;;6.93;2.92;;;;;;;;;;4995564;28;94541;-78
2022/01/10 03:24:14;;;;;;;5.28;2.85;;;;;;;;;;4995695;28;95844;-78
2022/01/10 03:26:41;;;;;;;6.07;2.75;;;;;;;;;;4978295;28;92013;-78
2022/01/10 03:29:08;;;;;;;7.32;2.85;;;;;;;;;;4975416;28;95109;-78
2022/01/10 03:31:34;;;;;;;7.35;2.75;;;;;;;;;;4987148;28;93840;-78
2022/01/10 03:34:02;;;;;;;6.00;2.33;;;;;;;;;;4986242;28;94957;-79
2022/01/10 03:36:30;;;;;;;8.95;3.95;;;;;;;;;;5009191;28;92130;-79
2022/01/10 03:38:56;;;;;;;6.28;2.55;;;;;;;;;;4987880;28;92511;-78
2022/01/10 03:41:23;;;;;;;9.30;3.60;;;;;;;;;;4988595;28;94210;-78
2022/01/10 03:43:50;;;;;;;5.05;2.88;;;;;;;;;;4981609;28;92768;-77
2022/01/10 03:46:17;;;;;;;4.93;2.40;;;;;;;;;;4982693;28;92311;-77
2022/01/10 03:48:43;;;;;;;4.80;2.67;;;;;;;;;;4988617;28;92361;-77
2022/01/10 03:51:10;;;;;;;4.35;2.83;;;;;;;;;;4984597;28;92936;-78
2022/01/10 03:53:37;;;;;;;6.20;2.88;;;;;;;;;;4994076;28;94053;-78
2022/01/10 03:56:03;;;;;;;4.97;3.00;;;;;;;;;;4987343;28;95702;-77
2022/01/10 03:58:32;;;;;;;5.72;2.88;;;;;;;;;;4990397;28;94745;-78
2022/01/10 04:01:00;;;;;;;4.82;2.92;;;;;;;;;;4981996;28;95110;-78
2022/01/10 04:03:26;;;;;;;6.88;2.35;;;;;;;;;;4983493;28;92601;-78
2022/01/10 04:06:01;;;;;;;6.47;2.97;;;;;;;;;;4975110;28;92378;-78
2022/01/10 04:08:33;;;;;;;4.67;2.80;;;;;;;;;;4975088;28;94207;-78
2022/01/10 04:10:59;;;;;;;3.78;2.50;;;;;;;;;;4974479;28;92452;-78
2022/01/10 04:13:26;;;;;;;3.88;2.70;;;;;;;;;;4979454;28;95563;-78
2022/01/10 04:15:52;;;;;;;7.18;3.00;;;;;;;;;;4989515;28;92043;-79
2022/01/10 04:18:19;;;;;;;6.03;2.97;;;;;;;;;;4991723;28;92478;-78
2022/01/10 04:20:46;;;;;;;6.22;3.22;;;;;;;;;;4989056;28;93117;-78
2022/01/10 04:23:13;;;;;;;16.42;3.05;;;;;;;;;;4991815;28;94892;-77
2022/01/10 04:25:41;;;;;;;6.25;3.05;;;;;;;;;;4990196;28;94176;-77
2022/01/10 04:28:07;;;;;;;6.55;3.15;;;;;;;;;;4990315;28;95804;-78
2022/01/10 04:30:34;;;;;;;5.32;2.80;;;;;;;;;;4988505;28;92384;-77
2022/01/10 04:33:03;;;;;;;5.10;3.13;;;;;;;;;;4984858;28;93726;-78
2022/01/10 04:35:30;;;;;;;7.57;3.63;;;;;;;;;;4979018;28;95170;-78
2022/01/10 04:37:57;;;;;;;10.13;3.25;;;;;;;;;;4993286;28;92188;-77
2022/01/10 04:40:24;;;;;;;5.88;3.15;;;;;;;;;;4997316;28;94812;-78
2022/01/10 04:42:54;;;;;;;8.10;3.42;;;;;;;;;;4995934;28;94090;-78
2022/01/10 04:45:21;;;;;;;6.03;2.90;;;;;;;;;;4994760;28;94327;-78
2022/01/10 04:47:48;;;;;;;5.72;3.17;;;;;;;;;;4975021;28;96742;-78
2022/01/10 04:52:47;;;;;;;5.82;3.22;;;;;;;;;;4982838;28;94945;-79
2022/01/10 04:55:14;;;;;;;7.25;2.90;;;;;;;;;;4986041;28;92546;-78
2022/01/10 04:57:40;;;;;;;6.45;3.95;;;;;;;;;;4979544;28;94914;-79
2022/01/10 05:00:08;;;;;;;6.10;3.20;;;;;;;;;;4985594;28;93963;-79
2022/01/10 05:02:36;;;;;;;6.68;3.47;;;;;;;;;;4983428;28;94716;-79
2022/01/10 05:05:04;;;;;;;7.03;2.78;;;;;;;;;;4998404;28;92852;-79
2022/01/10 05:07:30;;;;;;;5.90;3.30;;;;;;;;;;4997436;28;95404;-79
2022/01/10 05:09:58;;;;;;;7.13;3.25;;;;;;;;;;4994462;28;93788;-78
2022/01/10 05:12:29;;;;;;;6.05;2.97;;;;;;;;;;4975941;28;94472;-78
2022/01/10 05:14:56;;;;;;;4.30;2.47;;;;;;;;;;4977032;28;95316;-78
2022/01/10 05:17:24;;;;;;;5.07;3.30;;;;;;;;;;4984303;28;95282;-78
2022/01/10 05:19:51;;;;;;;5.68;3.47;;;;;;;;;;4981132;28;94230;-78
2022/01/10 05:22:17;;;;;;;5.55;3.05;;;;;;;;;;4989066;28;93478;-79
2022/01/10 05:24:44;;;;;;;5.57;3.28;;;;;;;;;;4978762;28;92429;-79
2022/01/10 05:27:11;;;;;;;5.13;2.70;;;;;;;;;;4994351;28;94156;-79
2022/01/10 05:29:37;;;;;;;7.75;3.65;;;;;;;;;;4991195;28;94223;-78
2022/01/10 05:32:04;;;;;;;8.70;3.40;;;;;;;;;;4978969;28;94327;-79
2022/01/10 05:34:57;;;;;;;5.13;2.97;;;;;;;;;;4990235;28;95119;-79
2022/01/10 05:37:23;;;;;;;4.85;2.72;;;;;;;;;;4990861;28;94736;-79
2022/01/10 05:39:50;;;;;;;5.70;3.00;;;;;;;;;;4995844;28;96833;-79
2022/01/10 05:42:19;;;;;;;6.63;3.63;;;;;;;;;;4990694;28;94439;-79
2022/01/10 05:44:47;;;;;;;8.23;3.28;;;;;;;;;;5007796;28;96412;-79
2022/01/10 05:47:14;;;;;;;4.32;3.05;;;;;;;;;;5011407;28;93857;-79
2022/01/10 05:49:46;;;;;;;4.45;3.13;;;;;;;;;;5008528;28;94059;-79
2022/01/10 05:52:16;;;;;;;6.15;3.25;;;;;;;;;;5006844;28;93779;-79
2022/01/10 05:54:47;;;;;;;4.95;2.72;;;;;;;;;;4987379;28;94091;-79
2022/01/10 05:57:14;;;;;;;5.80;3.33;;;;;;;;;;4981792;28;94764;-79
2022/01/10 05:59:47;;;;;;;6.95;3.08;;;;;;;;;;4996054;28;92442;-79
2022/01/10 06:02:13;;;;;;;3.38;2.58;;;;;;;;;;4993455;28;97377;-79
2022/01/10 06:04:40;;;;;;;4.82;3.33;;;;;;;;;;4969429;28;94623;-79
2022/01/10 06:07:21;;;;;;;4.85;2.80;;;;;;;;;;5002067;28;94120;-79
2022/01/10 06:09:48;;;;;;;5.30;2.90;;;;;;;;;;5002583;28;94004;-79
2022/01/10 06:12:14;;;;;;;6.50;3.47;;;;;;;;;;5004789;28;94748;-79
2022/01/10 06:14:41;;;;;;;5.97;3.15;;;;;;;;;;4988959;28;95784;-79
2022/01/10 06:17:07;;;;;;;7.00;3.58;;;;;;;;;;4997098;28;94062;-78
2022/01/10 06:19:34;;;;;;;4.75;2.83;;;;;;;;;;4989712;28;91541;-79
2022/01/10 06:22:01;;;;;;;10.02;3.50;;;;;;;;;;4970745;28;94043;-78
2022/01/10 06:24:29;;;;;;;11.15;3.67;;;;;;;;;;4981240;28;92944;-79
2022/01/10 06:26:56;;;;;;;4.75;3.05;;;;;;;;;;4994415;28;94593;-79
2022/01/10 06:29:23;;;;;;;4.93;2.95;;;;;;;;;;5005902;28;93823;-79
2022/01/10 06:31:49;;;;;;;8.85;3.50;;;;;;;;;;5006397;28;92094;-79
2022/01/10 06:34:18;;;;;;;7.80;3.50;;;;;;;;;;5008055;28;94446;-79
2022/01/10 06:36:46;;;;;;;8.25;3.78;;;;;;;;;;5001213;28;92283;-79
2022/01/10 06:39:14;;;;;;;8.90;3.30;;;;;;;;;;5008667;28;93951;-79
2022/01/10 06:41:43;;;;;;;4.25;3.03;;;;;;;;;;5007843;28;94375;-79
2022/01/10 06:44:10;;;;;;;7.30;3.08;;;;;;;;;;4994876;28;95231;-79
2022/01/10 06:46:36;;;;;;;9.48;3.83;;;;;;;;;;4983142;28;94429;-78
2022/01/10 06:49:03;;;;;;;6.75;3.90;;;;;;;;;;4980810;28;92420;-78
2022/01/10 06:51:30;;;;;;;6.90;3.55;;;;;;;;;;4986978;28;95627;-77
2022/01/10 06:53:57;;;;;;;7.85;3.55;;;;;;;;;;4976111;28;93371;-77
2022/01/10 06:56:24;;;;;;;5.72;3.10;;;;;;;;;;4990305;28;92396;-77
2022/01/10 06:58:51;;;;;;;6.05;3.35;;;;;;;;;;4977059;28;93713;-77
2022/01/10 07:01:27;;;;;;;8.95;4.10;;;;;;;;;;4959350;28;94045;-77
2022/01/10 07:03:57;;;;;;;6.63;3.65;;;;;;;;;;4989940;28;92371;-77
2022/01/10 07:06:24;;;;;;;10.10;3.78;;;;;;;;;;4991038;28;95083;-78
2022/01/10 07:08:52;;;;;;;9.05;4.18;;;;;;;;;;4980510;28;93182;-77
2022/01/10 07:11:25;;;;;;;7.28;3.72;;;;;;;;;;4976217;28;95198;-77
2022/01/10 07:13:53;;;;;;;6.47;3.85;;;;;;;;;;4993585;28;95438;-78
2022/01/10 07:16:20;;;;;;;8.50;4.05;;;;;;;;;;4973183;28;94792;-78
2022/01/10 07:18:52;;;;;;;8.02;3.65;;;;;;;;;;4978943;28;96454;-81
2022/01/10 07:21:28;;;;;;;6.90;4.20;;;;;;;;;;4993860;28;92497;-81
2022/01/10 07:23:55;;;;;;;7.93;3.70;;;;;;;;;;5012463;28;92315;-80
2022/01/10 07:26:22;;;;;;;8.77;3.78;;;;;;;;;;5010691;28;92820;-79
2022/01/10 07:28:51;;;;;;;7.25;3.40;;;;;;;;;;4998851;28;92259;-79
2022/01/10 07:31:18;;;;;;;7.88;3.92;;;;;;;;;;4987638;28;92142;-79
2022/01/10 07:33:45;;;;;;;12.52;4.18;;;;;;;;;;4998902;28;92084;-79
2022/01/10 07:36:11;;;;;;;7.43;4.00;;;;;;;;;;4991614;28;92112;-79
2022/01/10 07:38:37;;;;;;;7.13;4.00;;;;;;;;;;4982806;28;92353;-78
2022/01/10 07:41:05;;;;;;;7.32;4.00;;;;;;;;;;4984689;28;94762;-77
2022/01/10 07:43:32;;;;;;;6.28;3.60;;;;;;;;;;4973779;28;92883;-77
2022/01/10 07:46:01;;;;;;;6.57;4.22;;;;;;;;;;4974188;28;94255;-77
2022/01/10 07:48:28;;;;;;;11.45;4.22;;;;;;;;;;4989929;28;92380;-77
2022/01/10 07:50:55;;;;;;;19.67;4.43;;;;;;;;;;4993893;28;93124;-77
2022/01/10 07:53:21;;;;;;;6.15;3.50;;;;;;;;;;4987177;28;93011;-77
2022/01/10 07:55:48;;;;;;;9.25;4.07;;;;;;;;;;4986656;28;93228;-76
2022/01/10 07:58:16;;;;;;;6.75;3.70;;;;;;;;;;4986636;28;92098;-77
2022/01/10 08:00:44;;;;;;;7.65;3.38;;;;;;;;;;4981048;28;92279;-77
2022/01/10 08:03:12;;;;;;;5.35;3.55;;;;;;;;;;4984130;28;94112;-77
2022/01/10 08:05:39;;;;;;;18.40;4.35;;;;;;;;;;4986395;28;94790;-77
2022/01/10 08:08:05;;;;;;;9.80;3.40;;;;;;;;;;4983045;28;92438;-77
2022/01/10 08:10:32;;;;;;;15.82;3.92;;;;;;;;;;4979029;28;92417;-77
2022/01/10 08:12:58;;;;;;;8.40;3.65;;;;;;;;;;4974539;28;93910;-77
2022/01/10 08:15:25;;;;;;;6.75;3.38;;;;;;;;;;4986772;28;93102;-77
2022/01/10 08:17:51;;;;;;;7.40;3.35;;;;;;;;;;4985762;28;92931;-77
2022/01/10 08:20:18;;;;;;;8.48;4.20;;;;;;;;;;4979463;28;95110;-77
2022/01/10 08:22:44;;;;;;;7.93;3.88;;;;;;;;;;4984589;28;92814;-77
2022/01/10 08:25:11;;;;;;;5.43;3.22;;;;;;;;;;4972104;28;93143;-76
2022/01/10 08:27:37;;;;;;;10.07;3.42;;;;;;;;;;4982618;28;93343;-77
2022/01/10 08:30:04;;;;;;;6.57;3.40;;;;;;;;;;4976527;28;94899;-77
2022/01/10 08:32:32;;;;;;;7.70;3.45;;;;;;;;;;4978847;28;93910;-76
2022/01/10 08:34:59;;;;;;;7.82;3.33;;;;;;;;;;4973285;28;94767;-77
2022/01/10 08:37:25;;;;;;;4.47;3.35;;;;;;;;;;4979412;28;92252;-77
2022/01/10 08:39:52;;;;;;;11.75;3.20;;;;;;;;;;4986118;28;92538;-77
2022/01/10 08:42:19;;;;;;;5.63;3.05;;;;;;;;;;4983046;28;94491;-77
2022/01/10 08:44:46;;;;;;;13.32;3.17;;;;;;;;;;4993431;28;92440;-77
2022/01/10 08:47:17;;;;;;;;;;;;;;;;;;4981177;28;91997;-76
2022/01/10 08:49:44;;;;;;;5.13;3.25;;;;;;;;;;4986470;28;119819;-77
2022/01/10 08:52:11;;;;;;;6.82;3.50;;;;;;;;;;4980944;28;92430;-76
2022/01/10 08:54:38;;;;;;;5.97;3.00;;;;;;;;;;4990178;28;95828;-76
2022/01/10 08:57:04;;;;;;;7.70;3.17;;;;;;;;;;4978593;28;92467;-76
2022/01/10 08:59:31;;;;;;;6.00;3.13;;;;;;;;;;4973001;28;92443;-77
2022/01/10 09:01:59;;;;;;;6.35;3.40;;;;;;;;;;4975621;28;92581;-76
2022/01/10 09:04:25;;;;;;;5.93;3.00;;;;;;;;;;4985445;28;92342;-76
2022/01/10 09:06:56;;;;;;;9.10;3.50;;;;;;;;;;4972119;28;93805;-76
2022/01/10 09:09:23;;;;;;;6.68;3.03;;;;;;;;;;4979297;28;92335;-77
2022/01/10 09:11:50;;;;;;;8.18;3.40;;;;;;;;;;4979124;28;93096;-76
2022/01/10 09:14:16;;;;;;;8.95;3.60;;;;;;;;;;4991321;28;93227;-77
2022/01/10 09:16:43;;;;;;;7.72;3.83;;;;;;;;;;4989475;28;93011;-76
2022/01/10 09:19:10;;;;;;;7.82;3.72;;;;;;;;;;4980519;28;94747;-77
2022/01/10 09:21:36;;;;;;;9.32;3.55;;;;;;;;;;4977151;28;92448;-77
2022/01/10 09:24:03;;;;;;;10.70;3.50;;;;;;;;;;4987899;28;92992;-76
2022/01/10 09:26:29;;;;;;;8.00;3.80;;;;;;;;;;4971863;28;93093;-77
2022/01/10 09:28:56;;;;;;;8.00;3.83;;;;;;;;;;4984210;28;92903;-76
2022/01/10 09:31:23;;;;;;;9.60;4.25;;;;;;;;;;4989911;28;92507;-76
2022/01/10 09:33:55;;;;;;;7.15;4.25;;;;;;;;;;4988658;28;92314;-76
2022/01/10 09:36:22;;;;;;;6.63;3.83;;;;;;;;;;4975134;28;92640;-76
2022/01/10 09:38:49;;;;;;;8.20;4.00;;;;;;;;;;4983697;28;92350;-76
2022/01/10 09:41:16;;;;;;;7.15;4.00;;;;;;;;;;4975406;28;92361;-76
2022/01/10 09:43:48;;;;;;;12.57;4.15;;;;;;;;;;4980517;28;94799;-76
2022/01/10 09:46:15;;;;;;;13.02;4.40;;;;;;;;;;4993457;28;96038;-76
2022/01/10 09:48:41;;;;;;;11.63;4.20;;;;;;;;;;4989489;28;92601;-76
2022/01/10 09:51:23;;;;;;;9.70;4.25;;;;;;;;;;4971315;28;92447;-76
2022/01/10 09:53:50;;;;;;;8.00;4.72;;;;;;;;;;4982282;28;92474;-76
2022/01/10 09:56:16;;;;;;;21.35;5.13;;;;;;;;;;4991295;28;94990;-76
2022/01/10 09:58:45;;;;;;;8.98;4.35;;;;;;;;;;4975449;28;92309;-77
2022/01/10 10:01:13;;;;;;;9.90;3.88;;;;;;;;;;4979416;28;92267;-76
2022/01/10 10:03:42;;;;;;;8.63;3.70;;;;;;;;;;4984930;28;92363;-76
2022/01/10 10:06:09;;;;;;;9.18;4.60;;;;;;;;;;4983867;28;92952;-76
2022/01/10 10:08:37;;;;;;;9.32;4.10;;;;;;;;;;4976849;28;96160;-77
2022/01/10 10:11:05;;;;;;;15.82;5.03;;;;;;;;;;4974074;28;93947;-77
2022/01/10 10:13:40;;;;;;;11.75;4.50;;;;;;;;;;4976894;28;93529;-76
2022/01/10 10:16:12;;;;;;;9.30;4.85;;;;;;;;;;4981355;28;92951;-76
2022/01/10 10:18:39;;;;;;;11.50;4.70;;;;;;;;;;4995396;28;92583;-76
2022/01/10 10:21:13;;;;;;;10.27;4.75;;;;;;;;;;4981856;28;93091;-76
2022/01/10 10:23:41;;;;;;;18.00;5.10;;;;;;;;;;4994951;28;94856;-76
2022/01/10 10:26:07;;;;;;;20.65;5.32;;;;;;;;;;4996370;28;93262;-76
2022/01/10 10:28:35;;;;;;;14.38;4.60;;;;;;;;;;4996422;28;93267;-77
2022/01/10 10:31:02;;;;;;;14.45;4.95;;;;;;;;;;4995518;28;92722;-76
2022/01/10 10:33:28;;;;;;;11.05;4.72;;;;;;;;;;4984642;28;95605;-77
2022/01/10 10:35:56;;;;;;;20.40;5.53;;;;;;;;;;4995998;28;93099;-77
2022/01/10 10:38:26;;;;;;;13.20;4.78;;;;;;;;;;4993410;28;93851;-77
2022/01/10 10:40:53;;;;;;;19.55;4.68;;;;;;;;;;4987594;28;93640;-77
2022/01/10 10:43:19;;;;;;;11.65;5.60;;;;;;;;;;4990901;28;92444;-77
2022/01/10 10:45:47;;;;;;;10.93;4.25;;;;;;;;;;4976006;28;92469;-76
2022/01/10 10:48:14;;;;;;;9.13;4.88;;;;;;;;;;4990220;28;92418;-77
2022/01/10 10:50:43;;;;;;;15.82;4.85;;;;;;;;;;4989596;28;92115;-77
2022/01/10 10:53:10;;;;;;;5.80;3.45;;;;;;;;;;4989365;28;92508;-76
2022/01/10 10:55:38;;;;;;;9.73;4.88;;;;;;;;;;4980138;28;92416;-77
2022/01/10 10:58:05;;;;;;;11.10;5.15;;;;;;;;;;4994517;28;94882;-77
2022/01/10 11:00:32;;;;;;;11.35;4.63;;;;;;;;;;4969633;28;93936;-77
2022/01/10 11:02:59;;;;;;;9.25;4.28;;;;;;;;;;4982627;28;92494;-78
2022/01/10 11:05:26;;;;;;;11.27;4.43;;;;;;;;;;4982916;28;92251;-76
2022/01/10 11:07:53;;;;;;;10.15;4.47;;;;;;;;;;4981242;28;92371;-76
2022/01/10 11:10:19;;;;;;;13.10;4.88;;;;;;;;;;4982534;28;92279;-76
2022/01/10 11:12:52;;;;;;;9.80;5.10;;;;;;;;;;4998524;28;93072;-75
2022/01/10 11:15:19;;;;;;;12.63;5.15;;;;;;;;;;4980307;28;92129;-75
2022/01/10 11:17:45;;;;;;;14.25;5.15;;;;;;;;;;4995142;28;92476;-75
2022/01/10 11:20:17;;;;;;;11.18;4.70;;;;;;;;;;4981363;28;92438;-75
2022/01/10 11:22:48;;;;;;;12.13;5.18;;;;;;;;;;4973701;28;94860;-75
2022/01/10 11:25:20;;;;;;;17.00;5.73;;;;;;;;;;4974077;28;94200;-75
2022/01/10 11:27:47;;;;;;;12.85;5.95;;;;;;;;;;4963831;28;94032;-75
2022/01/10 11:30:22;;;;;;;23.83;5.70;;;;;;;;;;4975235;28;92319;-77
2022/01/10 11:32:49;;;;;;;11.90;5.03;;;;;;;;;;4995239;28;92325;-75
2022/01/10 11:35:38;;;;;;;14.05;5.90;;;;;;;;;;4983816;28;93664;-76
2022/01/10 11:38:18;;;;;;;11.95;5.35;;;;;;;;;;4985417;28;92789;-75
2022/01/10 11:40:49;;;;;;;12.73;5.28;;;;;;;;;;4988443;28;92122;-76
2022/01/10 11:43:31;;;;;;;15.50;5.70;;;;;;;;;;4975303;28;93078;-75
2022/01/10 11:46:17;;;;;;;18.63;4.47;;;;;;;;;;4980164;28;92625;-76
2022/01/10 11:48:44;;;;;;;7.82;4.30;;;;;;;;;;4973706;28;94707;-78
2022/01/10 11:51:11;;;;;;;13.05;5.15;;;;;;;;;;4973374;28;95011;-78
2022/01/10 11:53:41;;;;;;;18.50;5.28;;;;;;;;;;4973008;28;92491;-78
2022/01/10 11:56:18;;;;;;;11.80;5.38;;;;;;;;;;4975827;28;92336;-78
2022/01/10 11:59:03;;;;;;;10.07;4.80;;;;;;;;;;4976211;28;92735;-77
2022/01/10 12:01:34;;;;;;;13.60;4.50;;;;;;;;;;4975614;28;92543;-78
2022/01/10 12:04:02;;;;;;;8.63;4.63;;;;;;;;;;4963515;28;95863;-78
2022/01/10 12:06:28;;;;;;;12.45;4.63;;;;;;;;;;4974550;28;92927;-78
2022/01/10 12:08:58;;;;;;;8.75;4.43;;;;;;;;;;4974802;28;92185;-78
2022/01/10 12:11:26;;;;;;;9.90;4.97;;;;;;;;;;4985514;28;94030;-78
2022/01/10 12:13:54;;;;;;;11.07;4.72;;;;;;;;;;4981628;28;94821;-78
2022/01/10 12:16:22;;;;;;;8.57;4.50;;;;;;;;;;4981436;28;92530;-77
2022/01/10 12:18:49;;;;;;;13.70;4.22;;;;;;;;;;4981454;28;92330;-78
2022/01/10 12:21:15;;;;;;;8.77;4.82;;;;;;;;;;4979632;28;92357;-78
2022/01/10 12:23:42;;;;;;;8.43;4.70;;;;;;;;;;4990359;28;92261;-78
2022/01/10 12:26:09;;;;;;;8.93;4.88;;;;;;;;;;4984524;28;91950;-77
2022/01/10 12:28:37;;;;;;;6.82;4.30;;;;;;;;;;4993331;28;92971;-78
2022/01/10 12:31:03;;;;;;;9.15;4.00;;;;;;;;;;4986100;28;92843;-78
2022/01/10 12:33:30;;;;;;;9.50;5.05;;;;;;;;;;4975524;28;92352;-77
2022/01/10 12:35:57;;;;;;;8.88;4.85;;;;;;;;;;4989647;28;92165;-79
2022/01/10 12:38:24;;;;;;;9.65;4.30;;;;;;;;;;4978235;28;94894;-78
2022/01/10 12:40:51;;;;;;;12.10;4.60;;;;;;;;;;4978848;28;95255;-78
2022/01/10 12:43:18;;;;;;;15.15;4.55;;;;;;;;;;4976514;28;95000;-78
2022/01/10 12:45:45;;;;;;;9.25;4.20;;;;;;;;;;4988442;28;93028;-78
2022/01/10 12:48:12;;;;;;;12.45;5.10;;;;;;;;;;4979936;28;92448;-78
2022/01/10 12:50:39;;;;;;;8.70;4.60;;;;;;;;;;4977515;28;92442;-78
2022/01/10 12:53:06;;;;;;;11.45;5.20;;;;;;;;;;4975346;28;92791;-78
2022/01/10 12:55:33;;;;;;;8.13;4.35;;;;;;;;;;4979197;28;92348;-78
2022/01/10 12:58:00;;;;;;;10.25;4.28;;;;;;;;;;4984730;28;94567;-78
2022/01/10 13:00:26;;;;;;;8.30;4.25;;;;;;;;;;4986269;28;93818;-78
2022/01/10 13:02:53;;;;;;;11.27;4.63;;;;;;;;;;4982924;28;95584;-78
2022/01/10 13:05:21;;;;;;;8.25;4.60;;;;;;;;;;4986115;28;92740;-78
2022/01/10 13:07:48;;;;;;;13.45;5.13;;;;;;;;;;4984820;28;92344;-79
2022/01/10 13:10:24;;;;;;;8.70;4.50;;;;;;;;;;4983355;28;92945;-78
2022/01/10 13:12:51;;;;;;;9.32;5.03;;;;;;;;;;4983604;28;93093;-78
2022/01/10 13:15:18;;;;;;;10.40;4.15;;;;;;;;;;4982472;28;93792;-78
2022/01/10 13:17:52;;;;;;;7.18;4.38;;;;;;;;;;4991910;28;92417;-78
2022/01/10 13:20:19;;;;;;;8.43;4.32;;;;;;;;;;4977051;28;92046;-78
2022/01/10 13:22:46;;;;;;;7.78;4.10;;;;;;;;;;4980558;28;93311;-78
2022/01/10 13:25:13;;;;;;;11.15;4.60;;;;;;;;;;4994587;28;92319;-78
2022/01/10 13:27:41;;;;;;;7.93;4.20;;;;;;;;;;4979995;28;94720;-78
2022/01/10 13:30:20;;;;;;;8.93;4.10;;;;;;;;;;4978626;28;92338;-78
2022/01/10 13:32:51;;;;;;;11.45;4.07;;;;;;;;;;4977941;28;92431;-75
2022/01/10 13:35:18;;;;;;;12.33;4.80;;;;;;;;;;4984593;28;92796;-75
2022/01/10 13:38:10;;;;;;;8.27;3.80;;;;;;;;;;4980649;28;92905;-75
2022/01/10 13:40:40;;;;;;;12.93;4.30;;;;;;;;;;4992442;28;92685;-75
2022/01/10 13:43:11;;;;;;;10.82;4.13;;;;;;;;;;4990575;28;93455;-75
2022/01/10 13:45:48;;;;;;;13.27;4.30;;;;;;;;;;4991276;28;92763;-75
2022/01/10 13:48:17;;;;;;;12.18;4.07;;;;;;;;;;4980496;28;92494;-75
2022/01/10 13:50:44;;;;;;;11.32;3.85;;;;;;;;;;4982769;28;92761;-75
2022/01/10 13:53:15;;;;;;;7.88;4.22;;;;;;;;;;4985119;28;94708;-75
2022/01/10 13:55:43;;;;;;;9.40;3.80;;;;;;;;;;4971665;28;92477;-75
2022/01/10 13:58:23;;;;;;;10.80;3.72;;;;;;;;;;4986555;28;92859;-75
2022/01/10 14:00:54;;;;;;;9.40;3.80;;;;;;;;;;4981168;28;92882;-75
2022/01/10 14:03:22;;;;;;;13.73;4.70;;;;;;;;;;4980641;28;92336;-75
2022/01/10 14:06:07;;;;;;;11.23;4.60;;;;;;;;;;4977666;28;92620;-75
2022/01/10 14:08:34;;;;;;;10.18;4.40;;;;;;;;;;4978655;28;92332;-75
2022/01/10 14:11:05;;;;;;;10.60;3.75;;;;;;;;;;4984273;28;92263;-76
2022/01/10 14:13:32;;;;;;;6.75;3.40;;;;;;;;;;4987487;28;92669;-75
2022/01/10 14:15:58;;;;;;;9.43;4.38;;;;;;;;;;4983745;28;92368;-75
2022/01/10 14:18:25;;;;;;;12.50;4.38;;;;;;;;;;4991141;28;95348;-75
2022/01/10 14:20:52;;;;;;;11.15;3.60;;;;;;;;;;4987007;28;95054;-75
2022/01/10 14:23:19;;;;;;;11.95;4.47;;;;;;;;;;4982183;28;92280;-75
2022/01/10 14:25:46;;;;;;;7.57;3.90;;;;;;;;;;4990370;28;92497;-75
2022/01/10 14:28:12;;;;;;;9.68;3.90;;;;;;;;;;4991555;28;92389;-75
2022/01/10 14:30:39;;;;;;;8.30;3.38;;;;;;;;;;4975638;28;95722;-75
2022/01/10 14:33:06;;;;;;;7.43;3.58;;;;;;;;;;4982662;28;92464;-75
2022/01/10 14:35:33;;;;;;;6.63;3.95;;;;;;;;;;4978637;28;95181;-75
2022/01/10 14:37:59;;;;;;;8.90;3.88;;;;;;;;;;4979716;28;92375;-75
2022/01/10 14:40:25;;;;;;;8.77;3.92;;;;;;;;;;4983151;28;92458;-75
2022/01/10 14:42:52;;;;;;;12.52;4.15;;;;;;;;;;4992323;28;94494;-75
2022/01/10 14:45:18;;;;;;;9.73;4.03;;;;;;;;;;4994043;28;92441;-75
2022/01/10 14:47:45;;;;;;;10.15;3.70;;;;;;;;;;4982377;28;93164;-75
2022/01/10 14:50:15;;;;;;;7.85;4.05;;;;;;;;;;4994845;28;92577;-75
2022/01/10 14:52:42;;;;;;;9.10;3.88;;;;;;;;;;4982004;28;93189;-75
2022/01/10 14:55:08;;;;;;;11.77;4.05;;;;;;;;;;4987045;28;92291;-76
2022/01/10 14:57:35;;;;;;;7.78;4.47;;;;;;;;;;4963040;28;94369;-75